sensor_id;sensor_type;location;lat;lon;timestamp;temperature;humidity
52267;DHT22;38223;50.940;4.034;2024-01-30T00:01:27;11.70;99.90
52267;DHT22;38223;50.940;4.034;2024-01-30T00:03:56;11.90;99.90
52267;DHT22;38223;50.940;4.034;2024-01-30T00:06:25;11.80;99.90
52267;DHT22;38223;50.940;4.034;2024-01-30T00:08:56;12.00;99.90
52267;DHT22;38223;50.940;4.034;2024-01-30T00:11:25;11.90;99.90
52267;DHT22;38223;50.940;4.034;2024-01-30T00:13:54;12.00;99.90
52267;DHT22;38223;50.940;4.034;2024-01-30T00:16:27;11.80;99.90
52267;DHT22;38223;50.940;4.034;2024-01-30T00:18:57;11.70;99.90
52267;DHT22;38223;50.940;4.034;2024-01-30T00:21:28;11.80;99.90
52267;DHT22;38223;50.940;4.034;2024-01-30T00:23:59;11.70;99.90
52267;DHT22;38223;50.940;4.034;2024-01-30T00:26:32;11.90;99.90
52267;DHT22;38223;50.940;4.034;2024-01-30T00:29:03;12.00;99.90
52267;DHT22;38223;50.940;4.034;2024-01-30T00:31:31;12.00;99.90
52267;DHT22;38223;50.940;4.034;2024-01-30T00:34:04;12.00;99.90
52267;DHT22;38223;50.940;4.034;2024-01-30T00:36:34;12.00;99.90
52267;DHT22;38223;50.940;4.034;2024-01-30T00:39:09;11.90;99.90
52267;DHT22;38223;50.940;4.034;2024-01-30T00:41:39;12.00;99.90
52267;DHT22;38223;50.940;4.034;2024-01-30T00:44:11;12.10;99.90
52267;DHT22;38223;50.940;4.034;2024-01-30T00:46:41;12.10;99.90
52267;DHT22;38223;50.940;4.034;2024-01-30T00:49:19;12.10;99.90
52267;DHT22;38223;50.940;4.034;2024-01-30T00:51:48;12.00;99.90
52267;DHT22;38223;50.940;4.034;2024-01-30T00:54:19;12.00;99.90
52267;DHT22;38223;50.940;4.034;2024-01-30T00:56:49;12.00;99.90
52267;DHT22;38223;50.940;4.034;2024-01-30T00:59:22;12.00;99.90
52267;DHT22;38223;50.940;4.034;2024-01-30T01:01:52;12.00;99.90
52267;DHT22;38223;50.940;4.034;2024-01-30T01:04:23;12.00;99.90
52267;DHT22;38223;50.940;4.034;2024-01-30T01:06:57;11.90;99.90
52267;DHT22;38223;50.940;4.034;2024-01-30T01:09:25;11.90;99.90
52267;DHT22;38223;50.940;4.034;2024-01-30T01:11:54;12.00;99.90
52267;DHT22;38223;50.940;4.034;2024-01-30T01:14:25;12.00;99.90
52267;DHT22;38223;50.940;4.034;2024-01-30T01:16:55;12.00;99.90
52267;DHT22;38223;50.940;4.034;2024-01-30T01:19:26;12.00;99.90
52267;DHT22;38223;50.940;4.034;2024-01-30T01:21:54;12.00;99.90
52267;DHT22;38223;50.940;4.034;2024-01-30T01:24:23;11.90;99.90
52267;DHT22;38223;50.940;4.034;2024-01-30T01:26:54;11.80;99.90
52267;DHT22;38223;50.940;4.034;2024-01-30T01:29:23;11.90;99.90
52267;DHT22;38223;50.940;4.034;2024-01-30T01:31:53;12.00;99.90
52267;DHT22;38223;50.940;4.034;2024-01-30T01:34:26;11.90;99.90
52267;DHT22;38223;50.940;4.034;2024-01-30T01:36:56;12.00;99.90
52267;DHT22;38223;50.940;4.034;2024-01-30T01:39:24;11.90;99.90
52267;DHT22;38223;50.940;4.034;2024-01-30T01:41:52;12.00;99.90
52267;DHT22;38223;50.940;4.034;2024-01-30T01:44:21;12.10;99.90
52267;DHT22;38223;50.940;4.034;2024-01-30T01:46:52;12.10;99.90
52267;DHT22;38223;50.940;4.034;2024-01-30T01:49:27;12.20;99.90
52267;DHT22;38223;50.940;4.034;2024-01-30T01:51:57;12.20;99.90
52267;DHT22;38223;50.940;4.034;2024-01-30T01:54:29;12.20;99.90
52267;DHT22;38223;50.940;4.034;2024-01-30T01:56:56;12.10;99.90
52267;DHT22;38223;50.940;4.034;2024-01-30T01:59:25;12.00;99.90
52267;DHT22;38223;50.940;4.034;2024-01-30T02:01:54;12.00;99.90
52267;DHT22;38223;50.940;4.034;2024-01-30T02:04:26;11.90;99.90
52267;DHT22;38223;50.940;4.034;2024-01-30T02:06:59;11.90;99.90
52267;DHT22;38223;50.940;4.034;2024-01-30T02:09:27;11.90;99.90
52267;DHT22;38223;50.940;4.034;2024-01-30T02:12:15;11.70;99.90
52267;DHT22;38223;50.940;4.034;2024-01-30T02:14:45;11.70;99.90
52267;DHT22;38223;50.940;4.034;2024-01-30T02:17:17;11.80;99.90
52267;DHT22;38223;50.940;4.034;2024-01-30T02:19:51;12.00;99.90
52267;DHT22;38223;50.940;4.034;2024-01-30T02:22:18;12.10;99.90
52267;DHT22;38223;50.940;4.034;2024-01-30T02:24:47;12.20;99.90
52267;DHT22;38223;50.940;4.034;2024-01-30T02:27:15;12.20;99.90
52267;DHT22;38223;50.940;4.034;2024-01-30T02:32:30;12.20;99.90
52267;DHT22;38223;50.940;4.034;2024-01-30T02:34:57;12.10;99.90
52267;DHT22;38223;50.940;4.034;2024-01-30T02:37:25;12.20;99.90
52267;DHT22;38223;50.940;4.034;2024-01-30T02:39:51;12.20;99.90
52267;DHT22;38223;50.940;4.034;2024-01-30T02:42:20;12.20;99.90
52267;DHT22;38223;50.940;4.034;2024-01-30T02:44:49;12.20;99.90
52267;DHT22;38223;50.940;4.034;2024-01-30T02:47:18;12.30;99.90
52267;DHT22;38223;50.940;4.034;2024-01-30T02:49:48;12.30;99.90
52267;DHT22;38223;50.940;4.034;2024-01-30T02:52:20;12.30;99.90
52267;DHT22;38223;50.940;4.034;2024-01-30T02:54:48;12.10;99.90
52267;DHT22;38223;50.940;4.034;2024-01-30T02:57:17;12.20;99.90
52267;DHT22;38223;50.940;4.034;2024-01-30T02:59:47;12.30;99.90
52267;DHT22;38223;50.940;4.034;2024-01-30T03:02:18;12.40;99.90
52267;DHT22;38223;50.940;4.034;2024-01-30T03:04:48;12.30;99.90
52267;DHT22;38223;50.940;4.034;2024-01-30T03:07:20;12.30;99.90
52267;DHT22;38223;50.940;4.034;2024-01-30T03:09:48;12.20;99.90
52267;DHT22;38223;50.940;4.034;2024-01-30T03:12:16;12.10;99.90
52267;DHT22;38223;50.940;4.034;2024-01-30T03:14:45;12.10;99.90
52267;DHT22;38223;50.940;4.034;2024-01-30T03:17:21;12.00;99.90
52267;DHT22;38223;50.940;4.034;2024-01-30T03:19:51;12.00;99.90
52267;DHT22;38223;50.940;4.034;2024-01-30T03:22:20;12.00;99.90
52267;DHT22;38223;50.940;4.034;2024-01-30T03:24:48;11.90;99.90
52267;DHT22;38223;50.940;4.034;2024-01-30T03:27:16;11.90;99.90
52267;DHT22;38223;50.940;4.034;2024-01-30T03:29:45;12.00;99.90
52267;DHT22;38223;50.940;4.034;2024-01-30T03:32:22;12.00;99.90
52267;DHT22;38223;50.940;4.034;2024-01-30T03:34:51;12.00;99.90
52267;DHT22;38223;50.940;4.034;2024-01-30T03:37:22;12.00;99.90
52267;DHT22;38223;50.940;4.034;2024-01-30T03:39:52;12.10;99.90
52267;DHT22;38223;50.940;4.034;2024-01-30T03:42:23;12.00;99.90
52267;DHT22;38223;50.940;4.034;2024-01-30T03:44:53;12.10;99.90
52267;DHT22;38223;50.940;4.034;2024-01-30T03:47:24;12.10;99.90
52267;DHT22;38223;50.940;4.034;2024-01-30T03:49:54;12.10;99.90
52267;DHT22;38223;50.940;4.034;2024-01-30T03:52:25;12.10;99.90
52267;DHT22;38223;50.940;4.034;2024-01-30T03:54:54;12.10;99.90
52267;DHT22;38223;50.940;4.034;2024-01-30T03:57:26;12.10;99.90
52267;DHT22;38223;50.940;4.034;2024-01-30T03:59:56;12.00;99.90
52267;DHT22;38223;50.940;4.034;2024-01-30T04:02:25;12.10;99.90
52267;DHT22;38223;50.940;4.034;2024-01-30T04:04:55;12.10;99.90
52267;DHT22;38223;50.940;4.034;2024-01-30T04:07:27;12.10;99.90
52267;DHT22;38223;50.940;4.034;2024-01-30T04:09:56;12.00;99.90
52267;DHT22;38223;50.940;4.034;2024-01-30T04:12:26;12.00;99.90
52267;DHT22;38223;50.940;4.034;2024-01-30T04:14:56;12.00;99.90
52267;DHT22;38223;50.940;4.034;2024-01-30T04:17:29;12.10;99.90
52267;DHT22;38223;50.940;4.034;2024-01-30T04:19:58;12.10;99.90
52267;DHT22;38223;50.940;4.034;2024-01-30T04:22:26;12.10;99.90
52267;DHT22;38223;50.940;4.034;2024-01-30T04:24:56;12.10;99.90
52267;DHT22;38223;50.940;4.034;2024-01-30T04:27:25;12.00;99.90
52267;DHT22;38223;50.940;4.034;2024-01-30T04:29:55;12.00;99.90
52267;DHT22;38223;50.940;4.034;2024-01-30T04:32:24;11.90;99.90
52267;DHT22;38223;50.940;4.034;2024-01-30T04:34:55;11.90;99.90
52267;DHT22;38223;50.940;4.034;2024-01-30T04:37:26;11.90;99.90
52267;DHT22;38223;50.940;4.034;2024-01-30T04:39:56;11.90;99.90
52267;DHT22;38223;50.940;4.034;2024-01-30T04:42:29;11.80;99.90
52267;DHT22;38223;50.940;4.034;2024-01-30T04:44:57;11.80;99.90
52267;DHT22;38223;50.940;4.034;2024-01-30T04:47:27;11.80;99.90
52267;DHT22;38223;50.940;4.034;2024-01-30T04:49:58;11.80;99.90
52267;DHT22;38223;50.940;4.034;2024-01-30T04:52:30;11.80;99.90
52267;DHT22;38223;50.940;4.034;2024-01-30T04:57:44;11.80;99.90
52267;DHT22;38223;50.940;4.034;2024-01-30T05:00:11;11.90;99.90
52267;DHT22;38223;50.940;4.034;2024-01-30T05:02:41;11.90;99.90
52267;DHT22;38223;50.940;4.034;2024-01-30T05:05:14;11.90;99.90
52267;DHT22;38223;50.940;4.034;2024-01-30T05:07:46;11.90;99.90
52267;DHT22;38223;50.940;4.034;2024-01-30T05:10:13;11.80;99.90
52267;DHT22;38223;50.940;4.034;2024-01-30T05:12:44;11.80;99.90
52267;DHT22;38223;50.940;4.034;2024-01-30T05:15:15;11.80;99.90
52267;DHT22;38223;50.940;4.034;2024-01-30T05:17:44;11.70;99.90
52267;DHT22;38223;50.940;4.034;2024-01-30T05:20:14;11.70;99.90
52267;DHT22;38223;50.940;4.034;2024-01-30T05:23:05;11.70;99.90
52267;DHT22;38223;50.940;4.034;2024-01-30T05:25:33;11.70;99.90
52267;DHT22;38223;50.940;4.034;2024-01-30T05:28:06;11.80;99.90
52267;DHT22;38223;50.940;4.034;2024-01-30T05:30:35;11.70;99.90
52267;DHT22;38223;50.940;4.034;2024-01-30T05:33:03;11.70;99.90
52267;DHT22;38223;50.940;4.034;2024-01-30T05:35:32;11.70;99.90
52267;DHT22;38223;50.940;4.034;2024-01-30T05:38:02;11.70;99.90
52267;DHT22;38223;50.940;4.034;2024-01-30T05:40:33;11.70;99.90
52267;DHT22;38223;50.940;4.034;2024-01-30T05:43:04;11.70;99.90
52267;DHT22;38223;50.940;4.034;2024-01-30T05:45:37;11.60;99.90
52267;DHT22;38223;50.940;4.034;2024-01-30T05:48:05;11.70;99.90
52267;DHT22;38223;50.940;4.034;2024-01-30T05:50:34;11.60;99.90
52267;DHT22;38223;50.940;4.034;2024-01-30T05:53:03;11.70;99.90
52267;DHT22;38223;50.940;4.034;2024-01-30T05:55:36;11.80;99.90
52267;DHT22;38223;50.940;4.034;2024-01-30T05:58:07;11.80;99.90
52267;DHT22;38223;50.940;4.034;2024-01-30T06:00:37;11.50;99.90
52267;DHT22;38223;50.940;4.034;2024-01-30T06:03:04;11.50;99.90
52267;DHT22;38223;50.940;4.034;2024-01-30T06:05:35;11.70;99.90
52267;DHT22;38223;50.940;4.034;2024-01-30T06:08:04;11.60;99.90
52267;DHT22;38223;50.940;4.034;2024-01-30T06:10:35;11.50;99.90
52267;DHT22;38223;50.940;4.034;2024-01-30T06:13:07;11.50;99.90
52267;DHT22;38223;50.940;4.034;2024-01-30T06:15:37;11.60;99.90
52267;DHT22;38223;50.940;4.034;2024-01-30T06:18:07;11.60;99.90
52267;DHT22;38223;50.940;4.034;2024-01-30T06:20:37;11.60;99.90
52267;DHT22;38223;50.940;4.034;2024-01-30T06:23:08;11.60;99.90
52267;DHT22;38223;50.940;4.034;2024-01-30T06:25:40;11.60;99.90
52267;DHT22;38223;50.940;4.034;2024-01-30T06:28:07;11.60;99.90
52267;DHT22;38223;50.940;4.034;2024-01-30T06:30:38;11.70;99.90
52267;DHT22;38223;50.940;4.034;2024-01-30T06:33:05;11.70;99.90
52267;DHT22;38223;50.940;4.034;2024-01-30T06:35:35;11.60;99.90
52267;DHT22;38223;50.940;4.034;2024-01-30T06:38:07;11.60;99.90
52267;DHT22;38223;50.940;4.034;2024-01-30T06:40:38;11.60;99.90
52267;DHT22;38223;50.940;4.034;2024-01-30T06:43:07;11.70;99.90
52267;DHT22;38223;50.940;4.034;2024-01-30T06:45:35;11.80;99.90
52267;DHT22;38223;50.940;4.034;2024-01-30T06:48:03;11.90;99.90
52267;DHT22;38223;50.940;4.034;2024-01-30T06:50:32;11.90;99.90
52267;DHT22;38223;50.940;4.034;2024-01-30T06:53:00;11.80;99.90
52267;DHT22;38223;50.940;4.034;2024-01-30T06:55:32;11.90;99.90
52267;DHT22;38223;50.940;4.034;2024-01-30T06:58:00;12.00;99.90
52267;DHT22;38223;50.940;4.034;2024-01-30T07:00:28;12.10;99.90
52267;DHT22;38223;50.940;4.034;2024-01-30T07:02:57;12.10;99.90
52267;DHT22;38223;50.940;4.034;2024-01-30T07:05:26;12.10;99.90
52267;DHT22;38223;50.940;4.034;2024-01-30T07:07:55;12.10;99.90
52267;DHT22;38223;50.940;4.034;2024-01-30T07:10:23;12.20;99.90
52267;DHT22;38223;50.940;4.034;2024-01-30T07:12:52;12.20;99.90
52267;DHT22;38223;50.940;4.034;2024-01-30T07:15:21;12.30;99.90
52267;DHT22;38223;50.940;4.034;2024-01-30T07:17:48;12.40;99.90
52267;DHT22;38223;50.940;4.034;2024-01-30T07:20:17;12.30;99.90
52267;DHT22;38223;50.940;4.034;2024-01-30T07:22:47;12.30;99.90
52267;DHT22;38223;50.940;4.034;2024-01-30T07:25:17;12.20;99.90
52267;DHT22;38223;50.940;4.034;2024-01-30T07:27:44;12.30;99.90
52267;DHT22;38223;50.940;4.034;2024-01-30T07:30:13;12.30;99.90
52267;DHT22;38223;50.940;4.034;2024-01-30T07:32:41;12.40;99.90
52267;DHT22;38223;50.940;4.034;2024-01-30T07:35:09;12.40;99.90
52267;DHT22;38223;50.940;4.034;2024-01-30T07:37:38;12.40;99.90
52267;DHT22;38223;50.940;4.034;2024-01-30T07:40:09;12.40;99.90
52267;DHT22;38223;50.940;4.034;2024-01-30T07:42:39;12.10;99.90
52267;DHT22;38223;50.940;4.034;2024-01-30T07:45:09;12.10;99.90
52267;DHT22;38223;50.940;4.034;2024-01-30T07:47:37;12.00;99.90
52267;DHT22;38223;50.940;4.034;2024-01-30T07:50:05;12.00;99.90
52267;DHT22;38223;50.940;4.034;2024-01-30T07:52:34;12.00;99.90
52267;DHT22;38223;50.940;4.034;2024-01-30T07:55:03;12.00;99.90
52267;DHT22;38223;50.940;4.034;2024-01-30T07:57:31;11.90;99.90
52267;DHT22;38223;50.940;4.034;2024-01-30T08:00:04;12.00;99.90
52267;DHT22;38223;50.940;4.034;2024-01-30T08:02:33;12.00;99.90
52267;DHT22;38223;50.940;4.034;2024-01-30T08:05:02;11.90;99.90
52267;DHT22;38223;50.940;4.034;2024-01-30T08:07:30;11.90;99.90
52267;DHT22;38223;50.940;4.034;2024-01-30T08:09:58;11.90;99.90
52267;DHT22;38223;50.940;4.034;2024-01-30T08:12:27;12.00;99.90
52267;DHT22;38223;50.940;4.034;2024-01-30T08:14:56;12.10;99.90
52267;DHT22;38223;50.940;4.034;2024-01-30T08:17:26;12.20;99.90
52267;DHT22;38223;50.940;4.034;2024-01-30T08:20:00;12.20;99.90
52267;DHT22;38223;50.940;4.034;2024-01-30T08:22:28;12.30;99.90
52267;DHT22;38223;50.940;4.034;2024-01-30T08:24:58;12.30;99.90
52267;DHT22;38223;50.940;4.034;2024-01-30T08:27:26;12.30;99.90
52267;DHT22;38223;50.940;4.034;2024-01-30T08:29:55;12.30;99.90
52267;DHT22;38223;50.940;4.034;2024-01-30T08:32:24;12.40;99.90
52267;DHT22;38223;50.940;4.034;2024-01-30T08:34:52;12.40;99.90
52267;DHT22;38223;50.940;4.034;2024-01-30T08:37:21;12.40;99.90
52267;DHT22;38223;50.940;4.034;2024-01-30T08:39:49;12.50;99.90
52267;DHT22;38223;50.940;4.034;2024-01-30T08:42:18;12.60;99.90
52267;DHT22;38223;50.940;4.034;2024-01-30T08:44:49;12.60;99.90
52267;DHT22;38223;50.940;4.034;2024-01-30T08:47:19;12.60;99.90
52267;DHT22;38223;50.940;4.034;2024-01-30T08:49:47;12.50;99.90
52267;DHT22;38223;50.940;4.034;2024-01-30T08:52:15;12.40;99.90
52267;DHT22;38223;50.940;4.034;2024-01-30T08:54:44;12.40;99.90
52267;DHT22;38223;50.940;4.034;2024-01-30T08:57:17;12.50;99.90
52267;DHT22;38223;50.940;4.034;2024-01-30T08:59:45;12.60;99.90
52267;DHT22;38223;50.940;4.034;2024-01-30T09:02:13;12.60;99.90
52267;DHT22;38223;50.940;4.034;2024-01-30T09:04:43;12.70;99.90
52267;DHT22;38223;50.940;4.034;2024-01-30T09:07:12;12.70;99.90
52267;DHT22;38223;50.940;4.034;2024-01-30T09:09:41;12.80;99.90
52267;DHT22;38223;50.940;4.034;2024-01-30T09:12:10;12.80;99.90
52267;DHT22;38223;50.940;4.034;2024-01-30T09:14:40;12.70;99.90
52267;DHT22;38223;50.940;4.034;2024-01-30T09:17:07;12.60;99.90
52267;DHT22;38223;50.940;4.034;2024-01-30T09:19:36;12.60;99.90
52267;DHT22;38223;50.940;4.034;2024-01-30T09:22:05;12.60;99.90
52267;DHT22;38223;50.940;4.034;2024-01-30T09:24:33;12.60;99.90
52267;DHT22;38223;50.940;4.034;2024-01-30T09:27:02;12.60;99.90
52267;DHT22;38223;50.940;4.034;2024-01-30T09:29:31;12.60;99.90
52267;DHT22;38223;50.940;4.034;2024-01-30T09:32:00;12.60;99.90
52267;DHT22;38223;50.940;4.034;2024-01-30T09:34:28;12.70;99.90
52267;DHT22;38223;50.940;4.034;2024-01-30T09:36:58;12.90;99.90
52267;DHT22;38223;50.940;4.034;2024-01-30T09:39:28;12.90;99.90
52267;DHT22;38223;50.940;4.034;2024-01-30T09:42:11;12.90;99.90
52267;DHT22;38223;50.940;4.034;2024-01-30T09:44:32;13.00;99.90
52267;DHT22;38223;50.940;4.034;2024-01-30T09:47:04;12.80;99.90
52267;DHT22;38223;50.940;4.034;2024-01-30T09:49:35;12.50;99.90
52267;DHT22;38223;50.940;4.034;2024-01-30T09:52:03;12.60;99.90
52267;DHT22;38223;50.940;4.034;2024-01-30T09:54:32;12.60;99.90
52267;DHT22;38223;50.940;4.034;2024-01-30T09:57:02;12.60;99.90
52267;DHT22;38223;50.940;4.034;2024-01-30T09:59:31;12.60;99.90
52267;DHT22;38223;50.940;4.034;2024-01-30T10:02:00;12.70;99.90
52267;DHT22;38223;50.940;4.034;2024-01-30T10:04:30;12.90;99.90
52267;DHT22;38223;50.940;4.034;2024-01-30T10:07:01;12.90;99.90
52267;DHT22;38223;50.940;4.034;2024-01-30T10:09:31;12.90;99.90
52267;DHT22;38223;50.940;4.034;2024-01-30T10:12:00;13.00;99.90
52267;DHT22;38223;50.940;4.034;2024-01-30T10:14:29;13.00;99.90
52267;DHT22;38223;50.940;4.034;2024-01-30T10:16:58;12.90;99.90
52267;DHT22;38223;50.940;4.034;2024-01-30T10:19:27;12.80;99.90
52267;DHT22;38223;50.940;4.034;2024-01-30T10:21:56;12.70;99.90
52267;DHT22;38223;50.940;4.034;2024-01-30T10:24:25;12.40;99.90
52267;DHT22;38223;50.940;4.034;2024-01-30T10:26:53;12.40;99.90
52267;DHT22;38223;50.940;4.034;2024-01-30T10:29:22;12.10;99.90
52267;DHT22;38223;50.940;4.034;2024-01-30T10:32:07;11.90;99.90
52267;DHT22;38223;50.940;4.034;2024-01-30T10:34:33;11.70;99.90
52267;DHT22;38223;50.940;4.034;2024-01-30T10:37:09;11.40;99.90
52267;DHT22;38223;50.940;4.034;2024-01-30T10:39:39;11.40;99.90
52267;DHT22;38223;50.940;4.034;2024-01-30T10:42:11;11.30;99.90
52267;DHT22;38223;50.940;4.034;2024-01-30T10:44:48;11.20;99.90
52267;DHT22;38223;50.940;4.034;2024-01-30T10:47:12;11.20;99.90
52267;DHT22;38223;50.940;4.034;2024-01-30T10:49:42;11.20;99.90
52267;DHT22;38223;50.940;4.034;2024-01-30T10:52:18;11.30;99.90
52267;DHT22;38223;50.940;4.034;2024-01-30T10:54:44;11.40;99.90
52267;DHT22;38223;50.940;4.034;2024-01-30T10:57:13;11.40;99.90
52267;DHT22;38223;50.940;4.034;2024-01-30T10:59:43;11.50;99.90
52267;DHT22;38223;50.940;4.034;2024-01-30T11:02:11;11.60;99.90
52267;DHT22;38223;50.940;4.034;2024-01-30T11:04:42;11.60;99.90
52267;DHT22;38223;50.940;4.034;2024-01-30T11:07:34;11.80;99.90
52267;DHT22;38223;50.940;4.034;2024-01-30T11:10:03;11.80;99.90
52267;DHT22;38223;50.940;4.034;2024-01-30T11:12:33;11.80;99.90
52267;DHT22;38223;50.940;4.034;2024-01-30T11:15:12;11.80;99.90
52267;DHT22;38223;50.940;4.034;2024-01-30T11:20:17;11.80;99.90
52267;DHT22;38223;50.940;4.034;2024-01-30T11:22:48;11.80;99.90
52267;DHT22;38223;50.940;4.034;2024-01-30T11:25:16;12.00;99.90
52267;DHT22;38223;50.940;4.034;2024-01-30T11:27:46;12.10;99.90
52267;DHT22;38223;50.940;4.034;2024-01-30T11:30:26;12.10;99.90
52267;DHT22;38223;50.940;4.034;2024-01-30T11:33:07;12.20;99.90
52267;DHT22;38223;50.940;4.034;2024-01-30T11:35:36;12.30;99.90
52267;DHT22;38223;50.940;4.034;2024-01-30T11:38:06;12.30;99.90
52267;DHT22;38223;50.940;4.034;2024-01-30T11:40:38;12.30;99.90
52267;DHT22;38223;50.940;4.034;2024-01-30T11:43:08;12.30;99.90
52267;DHT22;38223;50.940;4.034;2024-01-30T11:45:37;12.40;99.90
52267;DHT22;38223;50.940;4.034;2024-01-30T11:48:07;12.50;99.90
52267;DHT22;38223;50.940;4.034;2024-01-30T11:50:38;12.30;99.90
52267;DHT22;38223;50.940;4.034;2024-01-30T11:53:08;12.20;99.90
52267;DHT22;38223;50.940;4.034;2024-01-30T11:55:37;12.20;99.90
52267;DHT22;38223;50.940;4.034;2024-01-30T11:58:16;12.30;99.90
52267;DHT22;38223;50.940;4.034;2024-01-30T12:00:52;12.20;99.90
52267;DHT22;38223;50.940;4.034;2024-01-30T12:03:14;12.10;99.90
52267;DHT22;38223;50.940;4.034;2024-01-30T12:05:43;12.10;99.90
52267;DHT22;38223;50.940;4.034;2024-01-30T12:08:18;12.10;99.90
52267;DHT22;38223;50.940;4.034;2024-01-30T12:10:54;12.10;99.90
52267;DHT22;38223;50.940;4.034;2024-01-30T12:13:15;12.30;99.90
52267;DHT22;38223;50.940;4.034;2024-01-30T12:15:45;12.50;99.90
52267;DHT22;38223;50.940;4.034;2024-01-30T12:18:14;12.70;99.90
52267;DHT22;38223;50.940;4.034;2024-01-30T12:20:42;12.60;99.90
52267;DHT22;38223;50.940;4.034;2024-01-30T12:23:11;12.60;99.90
52267;DHT22;38223;50.940;4.034;2024-01-30T12:25:41;12.60;99.90
52267;DHT22;38223;50.940;4.034;2024-01-30T12:28:14;12.60;99.90
52267;DHT22;38223;50.940;4.034;2024-01-30T12:30:41;12.50;99.90
52267;DHT22;38223;50.940;4.034;2024-01-30T12:33:15;12.50;99.90
52267;DHT22;38223;50.940;4.034;2024-01-30T12:35:45;12.60;99.90
52267;DHT22;38223;50.940;4.034;2024-01-30T12:38:10;12.30;99.90
52267;DHT22;38223;50.940;4.034;2024-01-30T12:40:40;12.10;99.90
52267;DHT22;38223;50.940;4.034;2024-01-30T12:43:10;12.10;99.90
52267;DHT22;38223;50.940;4.034;2024-01-30T12:45:41;12.00;99.90
52267;DHT22;38223;50.940;4.034;2024-01-30T12:48:09;11.80;99.90
52267;DHT22;38223;50.940;4.034;2024-01-30T12:50:38;11.60;99.90
52267;DHT22;38223;50.940;4.034;2024-01-30T12:53:10;11.40;99.90
52267;DHT22;38223;50.940;4.034;2024-01-30T12:55:39;11.40;99.90
52267;DHT22;38223;50.940;4.034;2024-01-30T12:58:10;11.30;99.90
52267;DHT22;38223;50.940;4.034;2024-01-30T13:00:43;11.20;99.90
52267;DHT22;38223;50.940;4.034;2024-01-30T13:03:13;11.20;99.90
52267;DHT22;38223;50.940;4.034;2024-01-30T13:05:43;11.10;99.90
52267;DHT22;38223;50.940;4.034;2024-01-30T13:08:16;11.10;99.90
52267;DHT22;38223;50.940;4.034;2024-01-30T13:10:45;11.10;99.90
52267;DHT22;38223;50.940;4.034;2024-01-30T13:13:12;11.20;99.90
52267;DHT22;38223;50.940;4.034;2024-01-30T13:15:43;11.00;99.90
52267;DHT22;38223;50.940;4.034;2024-01-30T13:18:12;10.90;99.90
52267;DHT22;38223;50.940;4.034;2024-01-30T13:20:42;10.80;99.90
52267;DHT22;38223;50.940;4.034;2024-01-30T13:23:13;10.90;99.90
52267;DHT22;38223;50.940;4.034;2024-01-30T13:25:42;10.80;99.90
52267;DHT22;38223;50.940;4.034;2024-01-30T13:28:10;10.90;99.90
52267;DHT22;38223;50.940;4.034;2024-01-30T13:30:37;11.00;99.90
52267;DHT22;38223;50.940;4.034;2024-01-30T13:33:07;11.10;99.90
52267;DHT22;38223;50.940;4.034;2024-01-30T13:35:34;11.10;99.90
52267;DHT22;38223;50.940;4.034;2024-01-30T13:38:01;11.00;99.90
52267;DHT22;38223;50.940;4.034;2024-01-30T13:40:30;10.90;99.90
52267;DHT22;38223;50.940;4.034;2024-01-30T13:42:58;10.80;99.90
52267;DHT22;38223;50.940;4.034;2024-01-30T13:45:27;10.90;99.90
52267;DHT22;38223;50.940;4.034;2024-01-30T13:47:56;11.00;99.90
52267;DHT22;38223;50.940;4.034;2024-01-30T13:50:27;11.00;99.90
52267;DHT22;38223;50.940;4.034;2024-01-30T13:52:55;11.10;99.90
52267;DHT22;38223;50.940;4.034;2024-01-30T13:55:22;11.00;99.90
52267;DHT22;38223;50.940;4.034;2024-01-30T13:57:52;10.90;99.90
52267;DHT22;38223;50.940;4.034;2024-01-30T14:00:23;10.80;99.90
52267;DHT22;38223;50.940;4.034;2024-01-30T14:02:51;10.70;99.90
52267;DHT22;38223;50.940;4.034;2024-01-30T14:05:20;10.70;99.90
52267;DHT22;38223;50.940;4.034;2024-01-30T14:07:51;10.70;99.90
52267;DHT22;38223;50.940;4.034;2024-01-30T14:10:19;10.80;99.90
52267;DHT22;38223;50.940;4.034;2024-01-30T14:12:49;10.90;99.90
52267;DHT22;38223;50.940;4.034;2024-01-30T14:15:17;10.90;99.90
52267;DHT22;38223;50.940;4.034;2024-01-30T14:17:45;11.10;99.90
52267;DHT22;38223;50.940;4.034;2024-01-30T14:20:15;11.10;99.90
52267;DHT22;38223;50.940;4.034;2024-01-30T14:22:45;11.00;99.90
52267;DHT22;38223;50.940;4.034;2024-01-30T14:25:14;10.90;99.90
52267;DHT22;38223;50.940;4.034;2024-01-30T14:27:42;11.00;99.90
52267;DHT22;38223;50.940;4.034;2024-01-30T14:30:11;11.00;99.90
52267;DHT22;38223;50.940;4.034;2024-01-30T14:32:42;11.10;99.90
52267;DHT22;38223;50.940;4.034;2024-01-30T14:35:10;11.00;99.90
52267;DHT22;38223;50.940;4.034;2024-01-30T14:37:42;11.00;99.90
52267;DHT22;38223;50.940;4.034;2024-01-30T14:40:10;11.00;99.90
52267;DHT22;38223;50.940;4.034;2024-01-30T14:42:39;11.00;99.90
52267;DHT22;38223;50.940;4.034;2024-01-30T14:45:08;10.80;99.90
52267;DHT22;38223;50.940;4.034;2024-01-30T14:47:40;10.70;99.90
52267;DHT22;38223;50.940;4.034;2024-01-30T14:50:27;10.70;99.90
52267;DHT22;38223;50.940;4.034;2024-01-30T14:52:54;10.50;99.90
52267;DHT22;38223;50.940;4.034;2024-01-30T14:55:22;10.70;99.90
52267;DHT22;38223;50.940;4.034;2024-01-30T14:57:49;10.80;99.90
52267;DHT22;38223;50.940;4.034;2024-01-30T15:00:16;11.00;99.90
52267;DHT22;38223;50.940;4.034;2024-01-30T15:02:44;11.00;99.90
52267;DHT22;38223;50.940;4.034;2024-01-30T15:05:12;10.90;99.90
52267;DHT22;38223;50.940;4.034;2024-01-30T15:07:40;10.80;99.90
52267;DHT22;38223;50.940;4.034;2024-01-30T15:10:08;10.80;99.90
52267;DHT22;38223;50.940;4.034;2024-01-30T15:12:37;10.80;99.90
52267;DHT22;38223;50.940;4.034;2024-01-30T15:15:07;10.70;99.90
52267;DHT22;38223;50.940;4.034;2024-01-30T15:17:35;10.70;99.90
52267;DHT22;38223;50.940;4.034;2024-01-30T15:20:04;10.60;99.90
52267;DHT22;38223;50.940;4.034;2024-01-30T15:22:34;10.70;99.90
52267;DHT22;38223;50.940;4.034;2024-01-30T15:25:02;10.60;99.90
52267;DHT22;38223;50.940;4.034;2024-01-30T15:27:31;10.60;99.90
52267;DHT22;38223;50.940;4.034;2024-01-30T15:29:58;10.60;99.90
52267;DHT22;38223;50.940;4.034;2024-01-30T15:32:26;10.50;99.90
52267;DHT22;38223;50.940;4.034;2024-01-30T15:34:55;10.40;99.90
52267;DHT22;38223;50.940;4.034;2024-01-30T15:37:24;10.50;99.90
52267;DHT22;38223;50.940;4.034;2024-01-30T15:39:52;10.50;99.90
52267;DHT22;38223;50.940;4.034;2024-01-30T15:42:20;10.30;99.90
52267;DHT22;38223;50.940;4.034;2024-01-30T15:44:48;10.20;99.90
52267;DHT22;38223;50.940;4.034;2024-01-30T15:47:17;10.20;99.90
52267;DHT22;38223;50.940;4.034;2024-01-30T15:49:47;10.40;99.90
52267;DHT22;38223;50.940;4.034;2024-01-30T15:52:18;10.50;99.90
52267;DHT22;38223;50.940;4.034;2024-01-30T15:54:47;10.60;99.90